Time;durP1;ratioP1;P1;durP2;ratioP2;P2;SDS_P1;SDS_P2;PMS_P1;PMS_P2;Temp;Humidity;BMP_temperature;BMP_pressure;BME280_temperature;BME280_humidity;BME280_pressure;Samples;Min_cycle;Max_cycle;Signal;HPM_P1;HPM_P2
2023/06/17 00:02:17;;;;;;;8.25;4.13;;;17.10;95.10;;;;;;5015636;28;20125;-71
2023/06/17 00:04:43;;;;;;;6.28;3.92;;;17.10;95.20;;;;;;5005310;28;20080;-72
2023/06/17 00:07:08;;;;;;;4.93;3.50;;;17.20;95.30;;;;;;5004487;28;20460;-71
2023/06/17 00:09:34;;;;;;;18.08;4.50;;;17.20;95.30;;;;;;5006535;28;20050;-71
2023/06/17 00:12:02;;;;;;;6.32;3.80;;;17.20;95.30;;;;;;5004898;28;20104;-73
2023/06/17 00:14:28;;;;;;;9.43;4.22;;;17.20;95.30;;;;;;5005369;28;20444;-72
2023/06/17 00:16:54;;;;;;;10.15;4.30;;;17.20;95.10;;;;;;5005968;28;20045;-72
2023/06/17 00:19:20;;;;;;;10.77;4.75;;;17.20;95.40;;;;;;5004341;28;20057;-72
2023/06/17 00:21:49;;;;;;;13.07;4.00;;;17.20;95.30;;;;;;5004446;28;20042;-71
2023/06/17 00:24:21;;;;;;;8.13;3.88;;;17.20;95.40;;;;;;5004415;28;20107;-72
2023/06/17 00:26:47;;;;;;;4.65;4.20;;;17.10;95.90;;;;;;5003515;28;20512;-71
2023/06/17 00:29:13;;;;;;;11.85;4.25;;;17.10;95.50;;;;;;5005735;28;20081;-71
2023/06/17 00:31:38;;;;;;;9.25;4.90;;;17.10;95.50;;;;;;4997266;28;20065;-72
2023/06/17 00:34:04;;;;;;;9.27;4.05;;;17.10;95.50;;;;;;4984856;28;20038;-71
2023/06/17 00:36:30;;;;;;;6.88;4.63;;;17.10;95.70;;;;;;5001094;28;20076;-73
2023/06/17 00:38:55;;;;;;;8.80;4.30;;;17.10;95.80;;;;;;5004827;28;20052;-72
2023/06/17 00:41:21;;;;;;;4.30;3.63;;;17.00;96.20;;;;;;5002088;28;20416;-71
2023/06/17 00:43:47;;;;;;;7.25;4.18;;;17.00;96.00;;;;;;5005636;28;20048;-71
2023/06/17 00:46:30;;;;;;;8.98;4.45;;;17.00;96.20;;;;;;5004358;28;20556;-71
2023/06/17 00:48:55;;;;;;;5.82;3.63;;;17.00;96.40;;;;;;5005886;28;20456;-71
2023/06/17 00:51:21;;;;;;;7.50;3.95;;;16.90;95.90;;;;;;5005277;28;20041;-71
2023/06/17 00:53:47;;;;;;;8.25;4.63;;;16.90;96.00;;;;;;5005358;28;20400;-71
2023/06/17 00:56:17;;;;;;;7.15;4.85;;;16.90;96.10;;;;;;5004219;28;20153;-72
2023/06/17 00:58:43;;;;;;;7.63;4.07;;;16.80;96.00;;;;;;5004222;28;20145;-72
2023/06/17 01:01:09;;;;;;;11.52;5.07;;;16.80;96.10;;;;;;5005294;28;20120;-71
2023/06/17 01:03:34;;;;;;;6.45;3.65;;;16.70;96.00;;;;;;5003653;28;20229;-72
2023/06/17 01:06:07;;;;;;;5.50;4.32;;;16.70;96.20;;;;;;4994168;28;20130;-73
2023/06/17 01:08:44;;;;;;;6.38;3.85;;;16.60;96.40;;;;;;4998941;28;20054;-71
2023/06/17 01:13:42;;;;;;;6.15;4.10;;;16.40;96.30;;;;;;5003217;28;20050;-73
2023/06/17 01:16:08;;;;;;;6.28;4.30;;;16.40;96.40;;;;;;5004639;28;20044;-72
2023/06/17 01:18:34;;;;;;;8.43;5.10;;;16.40;96.50;;;;;;5003547;28;20050;-73
2023/06/17 01:21:03;;;;;;;6.13;4.05;;;16.30;96.50;;;;;;5004732;28;20056;-74
2023/06/17 01:23:37;;;;;;;7.30;3.83;;;16.20;96.70;;;;;;5005693;28;20108;-73
2023/06/17 01:26:04;;;;;;;5.93;4.50;;;16.20;97.00;;;;;;5002913;28;20107;-73
2023/06/17 01:28:30;;;;;;;10.15;4.50;;;16.10;96.70;;;;;;5005102;28;20045;-74
2023/06/17 01:30:56;;;;;;;7.22;4.30;;;16.10;96.80;;;;;;5003983;28;20056;-73
2023/06/17 01:33:23;;;;;;;7.40;4.35;;;16.00;96.80;;;;;;5005024;28;20076;-73
2023/06/17 01:35:58;;;;;;;9.60;5.38;;;16.00;97.00;;;;;;5004589;28;20396;-73
2023/06/17 01:38:43;;;;;;;7.47;4.70;;;16.00;97.00;;;;;;5004787;28;20068;-72
2023/06/17 01:41:14;;;;;;;8.25;4.18;;;16.00;98.30;;;;;;5003670;28;20053;-73
2023/06/17 01:43:43;;;;;;;6.70;4.67;;;16.00;97.20;;;;;;5004714;28;20050;-72
2023/06/17 01:46:11;;;;;;;7.18;3.78;;;16.10;97.10;;;;;;5003395;28;20099;-73
2023/06/17 01:48:38;;;;;;;6.40;4.40;;;16.10;97.00;;;;;;5004594;28;20061;-74
2023/06/17 01:51:05;;;;;;;5.80;4.30;;;16.10;97.10;;;;;;5004475;28;20109;-72
2023/06/17 01:53:30;;;;;;;5.50;4.10;;;16.10;97.10;;;;;;5004534;28;20049;-72
2023/06/17 01:55:56;;;;;;;8.40;5.25;;;16.10;97.20;;;;;;5004226;28;20488;-73
2023/06/17 01:58:22;;;;;;;6.80;4.90;;;16.20;97.30;;;;;;5004337;28;20041;-73
2023/06/17 02:00:47;;;;;;;9.20;4.20;;;16.20;97.40;;;;;;5004317;28;20037;-73
2023/06/17 02:03:13;;;;;;;10.52;5.32;;;16.30;97.40;;;;;;5002966;28;20049;-72
2023/06/17 02:05:39;;;;;;;9.45;5.18;;;16.30;97.30;;;;;;5004237;28;20034;-73
2023/06/17 02:08:05;;;;;;;10.02;6.20;;;16.30;97.40;;;;;;4992656;28;20038;-72
2023/06/17 02:10:31;;;;;;;9.25;5.28;;;16.40;97.20;;;;;;4998543;28;20052;-73
2023/06/17 02:12:57;;;;;;;8.90;5.95;;;16.40;97.20;;;;;;5003575;28;20138;-73
2023/06/17 02:15:23;;;;;;;10.65;5.30;;;16.40;97.50;;;;;;5002747;28;20135;-72
2023/06/17 02:17:48;;;;;;;11.10;6.13;;;16.50;97.40;;;;;;5002892;28;20042;-73
2023/06/17 02:20:14;;;;;;;12.00;6.65;;;16.50;97.40;;;;;;5004228;28;20046;-72
2023/06/17 02:22:40;;;;;;;10.80;6.45;;;16.50;97.30;;;;;;5004218;28;20125;-73
2023/06/17 02:25:07;;;;;;;9.52;5.50;;;16.60;97.90;;;;;;5004223;28;20042;-73
2023/06/17 02:27:33;;;;;;;10.13;5.93;;;16.60;97.60;;;;;;5003650;28;20038;-73
2023/06/17 02:29:58;;;;;;;10.23;6.20;;;16.60;97.40;;;;;;5004443;28;20595;-73
2023/06/17 02:32:24;;;;;;;10.18;5.88;;;16.70;97.70;;;;;;5002618;28;20042;-72
2023/06/17 02:34:50;;;;;;;10.55;5.50;;;16.60;97.50;;;;;;5003534;28;20081;-73
2023/06/17 02:37:16;;;;;;;9.45;5.22;;;16.60;97.60;;;;;;5004188;28;20050;-73
2023/06/17 02:39:42;;;;;;;11.95;6.20;;;16.70;97.60;;;;;;5004067;28;20062;-73
2023/06/17 02:42:08;;;;;;;12.48;5.43;;;16.70;97.50;;;;;;5002791;28;20045;-73
2023/06/17 02:44:35;;;;;;;10.73;5.90;;;16.70;97.60;;;;;;5004341;28;20051;-72
2023/06/17 02:47:01;;;;;;;9.02;5.90;;;16.70;97.60;;;;;;5003824;28;20049;-73
2023/06/17 02:49:27;;;;;;;11.60;5.57;;;16.70;97.70;;;;;;5004320;28;20038;-73
2023/06/17 02:51:52;;;;;;;14.10;5.32;;;16.70;97.70;;;;;;5004296;28;20408;-73
2023/06/17 02:54:18;;;;;;;14.10;6.15;;;16.70;98.00;;;;;;5002388;28;20038;-73
2023/06/17 02:56:44;;;;;;;9.38;5.85;;;16.70;98.30;;;;;;4985698;28;20504;-73
2023/06/17 02:59:09;;;;;;;9.73;5.97;;;16.60;98.20;;;;;;5002698;28;20558;-73
2023/06/17 03:01:42;;;;;;;12.70;6.20;;;16.60;98.50;;;;;;5002836;28;20046;-73
2023/06/17 03:04:11;;;;;;;8.27;5.40;;;16.60;98.30;;;;;;5004289;28;20053;-73
2023/06/17 03:06:40;;;;;;;11.55;5.35;;;16.60;98.20;;;;;;5006374;28;20073;-72
2023/06/17 03:09:09;;;;;;;11.88;5.07;;;16.60;98.20;;;;;;4989660;28;20054;-72
2023/06/17 03:11:36;;;;;;;10.45;5.70;;;16.60;98.20;;;;;;5005753;28;20076;-72
2023/06/17 03:14:02;;;;;;;9.10;4.72;;;16.60;98.20;;;;;;5006992;28;20053;-73
2023/06/17 03:16:33;;;;;;;9.30;6.05;;;16.60;98.40;;;;;;5007938;28;20038;-73
2023/06/17 03:19:00;;;;;;;8.43;5.40;;;16.60;98.70;;;;;;5007619;28;20167;-73
2023/06/17 03:21:29;;;;;;;10.82;4.93;;;16.60;98.30;;;;;;5007173;28;20045;-73
2023/06/17 03:23:58;;;;;;;15.48;7.30;;;16.60;98.70;;;;;;4990299;28;20053;-73
2023/06/17 03:26:25;;;;;;;13.35;5.85;;;16.60;98.60;;;;;;4988712;28;20085;-73
2023/06/17 03:28:51;;;;;;;13.30;6.55;;;16.60;98.70;;;;;;5007265;28;20045;-73
2023/06/17 03:31:20;;;;;;;9.70;5.45;;;16.50;98.80;;;;;;5006691;28;20056;-74
2023/06/17 03:33:50;;;;;;;12.77;6.43;;;16.50;98.90;;;;;;5007502;28;20056;-73
2023/06/17 03:36:19;;;;;;;10.73;5.82;;;16.50;99.10;;;;;;5006833;28;20045;-72
2023/06/17 03:38:45;;;;;;;12.35;6.40;;;16.50;99.00;;;;;;5006575;28;20396;-73
2023/06/17 03:41:11;;;;;;;10.15;5.55;;;16.50;98.90;;;;;;5005584;28;20042;-73
2023/06/17 03:43:37;;;;;;;10.73;5.80;;;16.50;99.00;;;;;;4980683;28;20576;-72
2023/06/17 03:46:03;;;;;;;15.10;5.85;;;16.50;99.00;;;;;;5001838;28;20131;-73
2023/06/17 03:48:28;;;;;;;11.00;6.05;;;16.50;99.00;;;;;;5007206;28;20038;-73
2023/06/17 03:50:54;;;;;;;15.82;5.57;;;16.50;99.10;;;;;;5004845;28;20488;-72
2023/06/17 03:53:20;;;;;;;14.45;6.35;;;16.50;99.40;;;;;;5005161;28;20469;-73
2023/06/17 03:55:46;;;;;;;11.40;6.25;;;16.50;99.10;;;;;;5005578;28;20129;-73
2023/06/17 03:58:14;;;;;;;10.73;5.43;;;16.50;99.20;;;;;;5005265;28;20057;-72
2023/06/17 04:00:41;;;;;;;10.88;5.80;;;16.50;99.60;;;;;;5005441;28;20046;-73
2023/06/17 04:03:07;;;;;;;12.52;5.65;;;16.50;99.90;;;;;;4986778;28;20064;-72
2023/06/17 04:05:33;;;;;;;12.02;6.18;;;16.50;99.90;;;;;;4986619;28;20125;-73
2023/06/17 04:08:02;;;;;;;9.23;5.90;;;16.50;99.60;;;;;;4986117;28;20074;-73
2023/06/17 04:10:28;;;;;;;10.85;5.63;;;16.50;99.90;;;;;;4999692;28;20056;-73
2023/06/17 04:12:54;;;;;;;11.88;5.75;;;16.50;99.90;;;;;;5005197;28;20124;-73
2023/06/17 04:15:20;;;;;;;11.95;5.65;;;16.40;99.90;;;;;;5004279;28;20497;-72
2023/06/17 04:17:45;;;;;;;10.40;5.32;;;16.40;99.60;;;;;;5005882;28;20045;-73
2023/06/17 04:20:12;;;;;;;14.40;5.55;;;16.40;99.90;;;;;;4988127;28;20750;-73
2023/06/17 04:22:41;;;;;;;10.27;6.03;;;16.50;99.90;;;;;;5004764;28;20407;-73
2023/06/17 04:25:09;;;;;;;9.07;5.03;;;16.50;99.70;;;;;;5005574;28;20049;-73
2023/06/17 04:27:36;;;;;;;13.50;5.70;;;16.50;99.80;;;;;;4996769;28;20488;-73
2023/06/17 04:30:03;;;;;;;12.65;5.68;;;16.50;99.70;;;;;;5004612;28;20081;-73
2023/06/17 04:32:29;;;;;;;10.20;5.43;;;16.50;99.90;;;;;;5006246;28;20057;-72
2023/06/17 04:34:55;;;;;;;11.20;5.65;;;16.50;99.90;;;;;;5005732;28;20037;-72
2023/06/17 04:37:20;;;;;;;8.18;5.70;;;16.50;99.90;;;;;;5005812;28;20607;-73
2023/06/17 04:39:46;;;;;;;9.05;5.70;;;16.50;99.90;;;;;;5005703;28;20049;-72
2023/06/17 04:42:18;;;;;;;10.60;5.97;;;16.60;99.90;;;;;;5004767;28;20097;-73
2023/06/17 04:44:44;;;;;;;10.27;6.35;;;16.60;99.90;;;;;;5005886;28;20084;-73
2023/06/17 04:47:11;;;;;;;8.82;5.95;;;16.60;99.90;;;;;;5005369;28;20097;-72
2023/06/17 04:49:41;;;;;;;13.70;6.30;;;16.70;99.90;;;;;;5005672;28;20037;-73
2023/06/17 04:52:19;;;;;;;11.88;6.10;;;16.70;99.90;;;;;;5005011;28;20078;-73
2023/06/17 04:54:45;;;;;;;16.60;7.90;;;16.70;99.90;;;;;;4987501;28;20066;-72
2023/06/17 04:57:11;;;;;;;12.57;7.25;;;16.70;99.90;;;;;;4999674;28;20037;-73
2023/06/17 04:59:37;;;;;;;11.60;7.25;;;16.70;99.90;;;;;;5005529;28;20057;-72
2023/06/17 05:02:03;;;;;;;12.55;7.80;;;16.70;99.90;;;;;;5004410;28;20038;-73
2023/06/17 05:04:29;;;;;;;13.95;7.15;;;16.70;99.90;;;;;;5004562;28;20049;-73
2023/06/17 05:06:55;;;;;;;17.55;7.20;;;16.70;99.90;;;;;;5003573;28;20400;-73
2023/06/17 05:09:20;;;;;;;11.98;6.93;;;16.70;99.90;;;;;;5003438;28;20125;-73
2023/06/17 05:11:46;;;;;;;11.93;6.63;;;16.70;99.90;;;;;;5001028;28;20046;-72
2023/06/17 05:14:11;;;;;;;14.35;7.57;;;16.70;99.90;;;;;;5001674;28;20041;-73
2023/06/17 05:16:37;;;;;;;14.02;6.70;;;16.70;99.90;;;;;;5003578;28;20386;-73
2023/06/17 05:19:06;;;;;;;12.95;6.75;;;16.60;99.90;;;;;;5004068;28;20109;-71
2023/06/17 05:21:32;;;;;;;10.93;6.30;;;16.70;99.90;;;;;;5003950;28;20306;-72
2023/06/17 05:23:57;;;;;;;11.80;6.75;;;16.70;99.90;;;;;;5003437;28;20052;-72
2023/06/17 05:26:23;;;;;;;10.02;6.65;;;16.70;99.90;;;;;;5002737;28;20396;-72
2023/06/17 05:28:48;;;;;;;15.30;7.05;;;16.70;99.90;;;;;;5004397;28;20074;-73
2023/06/17 05:31:14;;;;;;;9.90;6.07;;;16.70;99.90;;;;;;5003564;28;20131;-72
2023/06/17 05:33:40;;;;;;;13.00;6.65;;;16.70;99.90;;;;;;5003807;28;20128;-72
2023/06/17 05:36:06;;;;;;;12.55;6.40;;;16.80;99.90;;;;;;5003789;28;20046;-72
2023/06/17 05:38:31;;;;;;;11.60;6.55;;;16.80;99.90;;;;;;5002251;28;20053;-72
2023/06/17 05:40:57;;;;;;;9.43;6.00;;;16.80;99.90;;;;;;5003924;28;20042;-72
2023/06/17 05:43:26;;;;;;;12.15;6.03;;;16.80;99.90;;;;;;5003843;28;20046;-72
2023/06/17 05:45:52;;;;;;;9.07;5.53;;;16.80;99.90;;;;;;5003525;28;20053;-72
2023/06/17 05:48:17;;;;;;;11.57;5.90;;;16.80;99.90;;;;;;5002764;28;20472;-73
2023/06/17 05:50:43;;;;;;;14.45;6.60;;;16.80;99.90;;;;;;5002344;28;20125;-73
2023/06/17 05:53:09;;;;;;;18.13;7.10;;;16.80;99.90;;;;;;5003514;28;20218;-73
2023/06/17 05:55:34;;;;;;;10.27;6.15;;;16.80;99.90;;;;;;5003134;28;20046;-73
2023/06/17 05:58:00;;;;;;;12.63;6.05;;;16.90;99.90;;;;;;4986246;28;20531;-73
2023/06/17 06:00:26;;;;;;;10.95;6.75;;;16.90;99.90;;;;;;4986425;28;20081;-73
2023/06/17 06:02:51;;;;;;;7.75;4.95;;;16.90;99.90;;;;;;4985138;28;20236;-73
2023/06/17 06:05:17;;;;;;;8.30;4.88;;;17.00;99.90;;;;;;4987095;28;20080;-73
2023/06/17 06:07:46;;;;;;;10.45;4.93;;;17.00;99.90;;;;;;5003889;28;20065;-72
2023/06/17 06:10:12;;;;;;;11.27;5.32;;;17.00;99.90;;;;;;5001069;28;20050;-75
2023/06/17 06:12:38;;;;;;;8.63;4.88;;;17.00;99.90;;;;;;5003725;28;20053;-74
2023/06/17 06:15:05;;;;;;;10.90;5.65;;;17.10;99.90;;;;;;5003384;28;20082;-73
2023/06/17 06:17:31;;;;;;;8.77;5.15;;;17.10;99.90;;;;;;5002840;28;20126;-73
2023/06/17 06:19:57;;;;;;;9.90;6.50;;;17.10;99.90;;;;;;5001471;28;20556;-72
2023/06/17 06:22:22;;;;;;;8.13;5.68;;;17.10;99.90;;;;;;5003113;28;20393;-72
2023/06/17 06:24:48;;;;;;;7.53;4.93;;;17.20;99.90;;;;;;5003236;28;20050;-74
2023/06/17 06:27:14;;;;;;;12.38;6.65;;;17.20;99.90;;;;;;5001417;28;20042;-72
2023/06/17 06:29:40;;;;;;;10.23;5.03;;;17.20;99.90;;;;;;5003252;28;20042;-72
2023/06/17 06:32:06;;;;;;;12.40;5.68;;;17.30;99.90;;;;;;5003255;28;20068;-73
2023/06/17 06:34:31;;;;;;;9.35;5.57;;;17.30;99.90;;;;;;5002078;28;20284;-72
2023/06/17 06:36:58;;;;;;;11.23;5.78;;;17.30;99.90;;;;;;5002791;28;20480;-72
2023/06/17 06:39:24;;;;;;;11.57;5.55;;;17.30;99.90;;;;;;5005125;28;20100;-73
2023/06/17 06:41:49;;;;;;;10.48;5.97;;;17.30;99.90;;;;;;5005220;28;20042;-74
2023/06/17 06:44:16;;;;;;;7.93;5.13;;;17.30;99.90;;;;;;5008172;28;20450;-74
2023/06/17 06:46:42;;;;;;;10.98;5.40;;;17.40;99.90;;;;;;5006814;28;20457;-72
2023/06/17 06:49:07;;;;;;;8.82;5.25;;;17.40;99.90;;;;;;4995920;28;20046;-74
2023/06/17 06:51:33;;;;;;;12.07;5.75;;;17.50;99.90;;;;;;4988425;28;20416;-72
2023/06/17 06:53:58;;;;;;;12.93;5.63;;;17.50;99.90;;;;;;5006214;28;20058;-73
2023/06/17 06:56:25;;;;;;;9.80;5.75;;;17.60;99.90;;;;;;5006756;28;20050;-73
2023/06/17 06:58:51;;;;;;;9.13;5.70;;;17.60;99.90;;;;;;5001596;28;20046;-73
2023/06/17 07:01:16;;;;;;;11.98;6.53;;;17.50;99.90;;;;;;5005306;28;20042;-73
2023/06/17 07:03:42;;;;;;;7.60;5.63;;;17.60;99.90;;;;;;5006858;28;20123;-73
2023/06/17 07:06:08;;;;;;;10.55;5.38;;;17.60;99.90;;;;;;4992660;28;20054;-73
2023/06/17 07:08:34;;;;;;;12.45;5.20;;;17.70;99.90;;;;;;5006969;28;20115;-73
2023/06/17 07:10:59;;;;;;;9.10;6.00;;;17.70;99.90;;;;;;4984396;28;20476;-75
2023/06/17 07:13:25;;;;;;;13.98;5.43;;;17.80;99.90;;;;;;4991427;28;20459;-74
2023/06/17 07:15:51;;;;;;;11.10;5.25;;;17.80;99.90;;;;;;4988538;28;20047;-74
2023/06/17 07:18:16;;;;;;;15.15;5.32;;;17.90;99.90;;;;;;5005909;28;20120;-73
2023/06/17 07:20:42;;;;;;;10.10;5.35;;;18.00;99.90;;;;;;5001847;28;20050;-72
2023/06/17 07:23:08;;;;;;;10.13;5.53;;;18.10;99.90;;;;;;5002901;28;20034;-72
2023/06/17 07:25:33;;;;;;;9.05;5.28;;;18.10;99.90;;;;;;5005920;28;20415;-72
2023/06/17 07:28:02;;;;;;;8.18;5.20;;;18.10;99.90;;;;;;5005364;28;20042;-73
2023/06/17 07:30:27;;;;;;;15.80;6.63;;;18.20;99.90;;;;;;5005673;28;20096;-73
2023/06/17 07:32:53;;;;;;;16.00;6.90;;;18.20;99.90;;;;;;5005737;28;20054;-72
2023/06/17 07:35:19;;;;;;;10.88;5.93;;;18.20;99.90;;;;;;5004805;28;20053;-72
2023/06/17 07:37:44;;;;;;;9.18;5.50;;;18.30;99.90;;;;;;5006374;28;20431;-72
2023/06/17 07:40:11;;;;;;;8.80;5.60;;;18.30;99.90;;;;;;4982305;28;20046;-72
2023/06/17 07:42:37;;;;;;;7.82;5.15;;;18.30;99.90;;;;;;4985481;28;20504;-73
2023/06/17 07:45:07;;;;;;;17.45;6.35;;;18.30;99.90;;;;;;4997274;28;20057;-72
2023/06/17 07:47:32;;;;;;;9.25;6.28;;;18.40;99.90;;;;;;4996634;28;20093;-72
2023/06/17 07:49:58;;;;;;;12.95;6.35;;;18.40;99.90;;;;;;4990209;28;20456;-72
2023/06/17 07:52:23;;;;;;;10.48;5.50;;;18.40;99.90;;;;;;5003902;28;20034;-71
2023/06/17 07:54:51;;;;;;;13.50;5.53;;;18.40;99.90;;;;;;5004858;28;20550;-72
2023/06/17 07:57:17;;;;;;;7.53;4.88;;;18.40;99.90;;;;;;5000025;28;20045;-71
2023/06/17 07:59:43;;;;;;;10.27;4.78;;;18.40;99.90;;;;;;5001502;28;20117;-72
2023/06/17 08:02:09;;;;;;;15.77;6.35;;;18.50;99.90;;;;;;5004962;28;20443;-72
2023/06/17 08:04:35;;;;;;;11.15;5.55;;;18.50;99.90;;;;;;4987497;28;20049;-71
2023/06/17 08:07:01;;;;;;;15.52;6.30;;;18.50;99.90;;;;;;4988200;28;20133;-73
2023/06/17 08:09:27;;;;;;;11.00;4.90;;;18.50;99.90;;;;;;4998926;28;20136;-72
2023/06/17 08:11:53;;;;;;;16.75;5.90;;;18.60;99.90;;;;;;4999759;28;20413;-71
2023/06/17 08:14:19;;;;;;;12.57;6.15;;;18.70;99.90;;;;;;4977459;28;20103;-72
2023/06/17 08:16:45;;;;;;;8.48;5.60;;;18.70;99.90;;;;;;4997957;28;20045;-70
2023/06/17 08:19:10;;;;;;;9.68;6.07;;;18.70;99.90;;;;;;4992603;28;20128;-72
2023/06/17 08:21:37;;;;;;;8.38;4.57;;;18.70;99.90;;;;;;4997766;28;20050;-72
2023/06/17 08:24:23;;;;;;;9.68;5.78;;;18.80;99.90;;;;;;4985156;28;20033;-71
2023/06/17 08:26:49;;;;;;;10.90;5.32;;;18.80;99.90;;;;;;5000773;28;20429;-72
2023/06/17 08:29:15;;;;;;;9.05;5.35;;;18.80;99.90;;;;;;4986869;28;20289;-72
2023/06/17 08:31:50;;;;;;;7.97;5.45;;;18.80;99.90;;;;;;4992545;28;20041;-72
2023/06/17 08:34:15;;;;;;;9.68;4.55;;;18.90;99.90;;;;;;5003966;28;20049;-72
2023/06/17 08:36:42;;;;;;;7.63;5.15;;;18.90;99.90;;;;;;4980625;28;20532;-71
2023/06/17 08:39:08;;;;;;;10.07;5.00;;;18.90;99.90;;;;;;5003481;28;20438;-72
2023/06/17 08:41:38;;;;;;;8.15;5.07;;;18.80;99.90;;;;;;4999811;28;20046;-71
2023/06/17 08:44:06;;;;;;;8.52;5.45;;;18.90;99.90;;;;;;4986599;28;20092;-72
2023/06/17 08:46:32;;;;;;;5.80;3.97;;;18.90;99.80;;;;;;4967923;28;20050;-72
2023/06/17 08:48:58;;;;;;;7.57;5.30;;;19.00;99.80;;;;;;4984947;28;20389;-71
2023/06/17 08:51:24;;;;;;;8.55;5.13;;;19.10;99.80;;;;;;4983714;28;20517;-71
2023/06/17 08:53:51;;;;;;;10.75;5.03;;;19.10;99.70;;;;;;4985828;28;20039;-72
2023/06/17 08:56:18;;;;;;;10.10;5.50;;;19.10;99.80;;;;;;4993911;28;20878;-71
2023/06/17 08:58:44;;;;;;;7.97;5.18;;;19.10;99.60;;;;;;4992949;28;20125;-72
2023/06/17 09:01:14;;;;;;;8.85;5.05;;;19.20;99.60;;;;;;5002717;28;20084;-72
2023/06/17 09:03:43;;;;;;;11.50;5.38;;;19.20;99.50;;;;;;5003342;28;20488;-71
2023/06/17 09:06:24;;;;;;;8.02;5.40;;;19.20;99.50;;;;;;5003314;28;20070;-71
2023/06/17 09:08:57;;;;;;;12.85;6.38;;;19.20;99.90;;;;;;4993704;28;20045;-72
2023/06/17 09:11:28;;;;;;;12.30;5.97;;;19.30;99.90;;;;;;5001955;28;20562;-71
2023/06/17 09:13:56;;;;;;;10.33;5.97;;;19.30;99.60;;;;;;5003970;28;20049;-72
2023/06/17 09:16:26;;;;;;;7.88;4.57;;;19.40;99.50;;;;;;4980398;28;20049;-71
2023/06/17 09:18:58;;;;;;;9.60;4.45;;;19.40;99.40;;;;;;4981368;28;20049;-72
2023/06/17 09:21:25;;;;;;;9.82;5.47;;;19.50;99.40;;;;;;4998425;28;20559;-72
2023/06/17 09:23:53;;;;;;;9.90;6.45;;;19.50;99.30;;;;;;5002412;28;20129;-72
2023/06/17 09:26:21;;;;;;;7.65;5.05;;;19.50;99.40;;;;;;5000830;28;20523;-74
2023/06/17 09:28:47;;;;;;;6.28;5.00;;;19.50;99.20;;;;;;4998991;28;20396;-72
2023/06/17 09:31:13;;;;;;;9.68;5.35;;;19.60;99.20;;;;;;5003233;28;20281;-71
2023/06/17 09:33:43;;;;;;;13.15;6.38;;;19.60;99.20;;;;;;5003453;28;20060;-72
2023/06/17 09:36:09;;;;;;;7.15;4.82;;;19.60;99.20;;;;;;5002674;28;20073;-73
2023/06/17 09:38:38;;;;;;;12.82;5.60;;;19.60;99.10;;;;;;5000580;28;20488;-80
2023/06/17 09:41:05;;;;;;;10.18;5.93;;;19.70;99.10;;;;;;4991906;28;20636;-80
2023/06/17 09:43:30;;;;;;;10.35;5.65;;;19.70;99.10;;;;;;5004544;28;20042;-77
2023/06/17 09:46:02;;;;;;;9.82;5.00;;;19.70;99.10;;;;;;4977222;28;20106;-76
2023/06/17 09:48:37;;;;;;;6.45;4.47;;;19.80;99.10;;;;;;5001290;28;20180;-77
2023/06/17 09:51:09;;;;;;;9.13;5.28;;;19.80;99.10;;;;;;4995775;28;20086;-73
2023/06/17 09:53:35;;;;;;;7.47;4.65;;;19.90;98.80;;;;;;4967838;28;20099;-74
2023/06/17 09:56:01;;;;;;;10.07;5.32;;;19.90;98.80;;;;;;5002485;28;20038;-72
2023/06/17 09:58:29;;;;;;;9.45;5.13;;;20.00;98.70;;;;;;4995649;28;20148;-72
2023/06/17 10:01:00;;;;;;;10.88;5.97;;;20.00;98.80;;;;;;4986622;28;20171;-72
2023/06/17 10:03:29;;;;;;;14.27;5.68;;;20.00;98.80;;;;;;4987249;28;20057;-72
2023/06/17 10:06:01;;;;;;;8.80;5.53;;;20.00;98.70;;;;;;5002962;28;20488;-72
2023/06/17 10:08:26;;;;;;;;;;;20.10;98.70;;;;;;5001940;28;20515;-71
2023/06/17 10:10:53;;;;;;;7.60;4.20;;;20.10;99.60;;;;;;5002123;28;19921;-72
2023/06/17 10:13:21;;;;;;;6.78;4.50;;;20.10;98.70;;;;;;5004503;28;20053;-72
2023/06/17 10:15:50;;;;;;;12.18;6.55;;;20.20;98.50;;;;;;5006942;28;20057;-72
2023/06/17 10:18:17;;;;;;;11.60;5.35;;;20.20;98.60;;;;;;5006881;28;20050;-73
2023/06/17 10:20:44;;;;;;;10.57;5.40;;;20.30;98.60;;;;;;5001595;28;20053;-73
2023/06/17 10:23:11;;;;;;;7.15;4.30;;;20.30;98.50;;;;;;5003168;28;20138;-73
2023/06/17 10:25:38;;;;;;;8.13;5.00;;;20.30;98.40;;;;;;4998372;28;20034;-73
2023/06/17 10:28:05;;;;;;;11.93;5.63;;;20.30;98.50;;;;;;5002196;28;20101;-73
2023/06/17 10:30:32;;;;;;;12.75;5.70;;;20.30;98.40;;;;;;5007125;28;20042;-74
2023/06/17 10:32:59;;;;;;;13.05;5.43;;;20.30;98.30;;;;;;4995948;28;20544;-74
2023/06/17 10:35:37;;;;;;;11.18;5.65;;;20.40;98.30;;;;;;5003965;28;20052;-73
2023/06/17 10:38:02;;;;;;;7.20;4.88;;;20.40;98.40;;;;;;5005039;28;20041;-73
2023/06/17 10:40:30;;;;;;;9.45;5.57;;;20.40;98.30;;;;;;5006465;28;20044;-73
2023/06/17 10:43:02;;;;;;;8.27;4.78;;;20.50;98.20;;;;;;5005499;28;20121;-73
2023/06/17 10:45:31;;;;;;;12.38;5.88;;;20.40;98.00;;;;;;5005843;28;20336;-73
2023/06/17 10:48:19;;;;;;;7.32;4.65;;;20.50;98.10;;;;;;5003759;28;20045;-73
2023/06/17 10:50:50;;;;;;;9.38;4.82;;;20.50;98.20;;;;;;5006029;28;20807;-73
2023/06/17 10:53:18;;;;;;;7.05;4.32;;;20.50;98.00;;;;;;5008083;28;20057;-73
2023/06/17 10:55:47;;;;;;;7.13;4.80;;;20.60;97.90;;;;;;5005389;28;20507;-73
2023/06/17 10:58:12;;;;;;;6.28;4.30;;;20.60;97.90;;;;;;5005810;28;20038;-73
2023/06/17 11:00:38;;;;;;;7.47;4.88;;;20.70;97.70;;;;;;5006667;28;20050;-73
2023/06/17 11:03:05;;;;;;;10.20;5.25;;;20.70;97.60;;;;;;5003484;28;20049;-73
2023/06/17 11:05:35;;;;;;;6.40;4.70;;;20.70;97.60;;;;;;5007235;28;20164;-73
2023/06/17 11:08:03;;;;;;;8.05;5.22;;;20.80;97.70;;;;;;5006954;28;20041;-74
2023/06/17 11:10:28;;;;;;;8.73;5.18;;;20.80;97.60;;;;;;5004069;28;20042;-73
2023/06/17 11:12:54;;;;;;;8.40;4.47;;;20.90;97.60;;;;;;5006505;28;20115;-84
2023/06/17 11:15:22;;;;;;;7.38;5.00;;;20.90;97.50;;;;;;4989673;28;20053;-73
2023/06/17 11:17:58;;;;;;;8.55;4.45;;;20.90;97.40;;;;;;5005881;28;20432;-73
2023/06/17 11:20:23;;;;;;;9.90;4.72;;;20.90;97.40;;;;;;5006084;28;20077;-72
2023/06/17 11:22:49;;;;;;;7.07;4.43;;;21.00;97.40;;;;;;5005282;28;20085;-72
2023/06/17 11:25:14;;;;;;;10.43;5.85;;;21.00;97.50;;;;;;5003059;28;20042;-73
2023/06/17 11:27:40;;;;;;;7.43;4.53;;;21.00;97.40;;;;;;5004609;28;20046;-72
2023/06/17 11:30:08;;;;;;;7.70;5.07;;;21.00;97.40;;;;;;5006271;28;20100;-73
2023/06/17 11:32:34;;;;;;;12.63;5.43;;;21.10;97.40;;;;;;5006395;28;20503;-75
2023/06/17 11:35:01;;;;;;;9.10;4.35;;;21.10;97.30;;;;;;5004766;28;20041;-73
2023/06/17 11:37:26;;;;;;;14.13;4.70;;;21.10;97.30;;;;;;5007803;28;20057;-73
2023/06/17 11:39:57;;;;;;;8.65;4.80;;;21.10;97.30;;;;;;5005558;28;20528;-72
2023/06/17 11:42:22;;;;;;;9.80;4.70;;;21.20;97.30;;;;;;5006085;28;20050;-74
2023/06/17 11:44:48;;;;;;;6.75;4.72;;;21.30;97.20;;;;;;5006862;28;20096;-73
2023/06/17 11:47:14;;;;;;;9.50;5.13;;;21.30;97.00;;;;;;5005507;28;20120;-74
2023/06/17 11:49:45;;;;;;;10.60;5.25;;;21.30;97.00;;;;;;5005571;28;20077;-77
2023/06/17 11:52:11;;;;;;;9.07;5.15;;;21.30;97.00;;;;;;5005308;28;20102;-73
2023/06/17 11:54:49;;;;;;;10.25;4.82;;;21.30;97.00;;;;;;5005597;28;20077;-74
2023/06/17 11:57:18;;;;;;;7.18;3.95;;;21.30;96.90;;;;;;5004988;28;20038;-72
2023/06/17 11:59:44;;;;;;;6.85;4.22;;;21.30;96.80;;;;;;5005375;28;20049;-72
2023/06/17 12:02:10;;;;;;;7.25;4.55;;;21.30;96.70;;;;;;4975452;28;20046;-72
2023/06/17 12:04:36;;;;;;;6.35;4.70;;;21.40;96.60;;;;;;5006036;28;20061;-73
2023/06/17 12:07:05;;;;;;;9.15;3.88;;;21.40;96.50;;;;;;4988517;28;20100;-74
2023/06/17 12:09:35;;;;;;;7.53;4.22;;;21.40;96.30;;;;;;5005931;28;20060;-72
2023/06/17 12:12:01;;;;;;;5.60;3.80;;;21.50;96.30;;;;;;5004685;28;20093;-73
2023/06/17 12:14:27;;;;;;;6.38;4.20;;;21.60;96.40;;;;;;5007045;28;20061;-71
2023/06/17 12:16:53;;;;;;;9.63;4.70;;;21.60;96.30;;;;;;4988524;28;20424;-72
2023/06/17 12:19:25;;;;;;;9.45;4.28;;;21.70;96.10;;;;;;5004639;28;20125;-71
2023/06/17 12:21:51;;;;;;;10.90;4.65;;;21.70;96.00;;;;;;5004734;28;20053;-73
2023/06/17 12:24:19;;;;;;;7.07;3.90;;;21.80;95.80;;;;;;5004094;28;20997;-72
2023/06/17 12:26:44;;;;;;;7.05;4.70;;;21.80;95.90;;;;;;5005734;28;20049;-71
2023/06/17 12:29:10;;;;;;;6.43;4.53;;;21.80;96.00;;;;;;5004790;28;20126;-73
2023/06/17 12:31:36;;;;;;;6.88;4.50;;;21.80;95.90;;;;;;5005834;28;20137;-73
2023/06/17 12:34:03;;;;;;;5.82;4.28;;;21.80;95.80;;;;;;5005307;28;20120;-72
2023/06/17 12:36:31;;;;;;;8.93;4.88;;;21.80;95.80;;;;;;5004915;28;20042;-72
2023/06/17 12:38:56;;;;;;;7.70;4.43;;;21.90;95.80;;;;;;5006072;28;20046;-72
2023/06/17 12:41:22;;;;;;;4.70;4.00;;;21.90;95.80;;;;;;5004023;28;20100;-73
2023/06/17 12:43:48;;;;;;;7.05;4.40;;;21.90;95.60;;;;;;5003883;28;20077;-73
2023/06/17 12:46:14;;;;;;;10.02;5.05;;;21.90;95.60;;;;;;5001812;28;20041;-71